Time;durP1;ratioP1;P1;durP2;ratioP2;P2;SDS_P1;SDS_P2;PMS_P1;PMS_P2;Temp;Humidity;BMP_temperature;BMP_pressure;BME280_temperature;BME280_humidity;BME280_pressure;Samples;Min_cycle;Max_cycle;Signal;HPM_P1;HPM_P2
2021/10/11 00:00:21;;;;;;;;;;;;;;;5.95;73.34;98954.53;1651362;86;24486;-85
2021/10/11 00:02:49;;;;;;;;;;;;;;;5.91;73.36;98954.73;1653505;85;20187;-85
2021/10/11 00:05:16;;;;;;;;;;;;;;;5.89;73.37;98953.52;1619910;87;25012;-85
2021/10/11 00:07:42;;;;;;;;;;;;;;;5.90;73.40;98952.58;1617412;87;22079;-83
2021/10/11 00:10:14;;;;;;;;;;;;;;;5.94;73.42;98951.56;1660757;85;26027;-85
2021/10/11 00:12:37;;;;;;;;;;;;;;;5.95;73.45;98935.50;1663304;84;24555;-83
2021/10/11 00:15:04;;;;;;;;;;;;;;;5.94;73.50;98946.38;1650403;85;20519;-85
2021/10/11 00:17:30;;;;;;;;;;;;;;;5.91;73.53;98943.04;1658639;85;24740;-85
2021/10/11 00:19:56;;;;;;;;;;;;;;;5.88;73.57;98950.08;1653598;85;22061;-87
2021/10/11 00:22:22;;;;;;;;;;;;;;;5.87;73.61;98950.98;1628114;87;26058;-87
2021/10/11 00:24:48;;;;;;;;;;;;;;;5.79;73.64;98943.07;1655184;86;24419;-86
2021/10/11 00:27:14;;;;;;;;;;;;;;;5.75;73.62;98941.52;1625967;87;20499;-87
2021/10/11 00:29:40;;;;;;;;;;;;;;;5.71;73.63;98941.27;1657031;85;24736;-87
2021/10/11 00:32:08;;;;;;;;;;;;;;;5.66;73.62;98939.32;1659952;85;22046;-84
2021/10/11 00:34:37;;;;;;;;;;;;;;;5.62;73.63;98936.47;1652757;85;26151;-82
2021/10/11 00:37:04;;;;;;;;;;;;;;;5.65;73.64;98930.69;1652886;86;24416;-87
2021/10/11 00:39:30;;;;;;;;;;;;;;;5.69;73.64;98928.34;1657759;85;20484;-84
2021/10/11 00:41:56;;;;;;;;;;;;;;;5.71;73.69;98930.43;1660932;85;24749;-86
2021/10/11 00:44:22;;;;;;;;;;;;;;;5.74;73.71;98928.14;1650480;85;22087;-86
2021/10/11 00:46:48;;;;;;;;;;;;;;;5.74;73.74;98927.69;1661115;85;25948;-86
2021/10/11 00:49:14;;;;;;;;;;;;;;;5.72;73.77;98923.48;1660468;85;24467;-86
2021/10/11 00:51:40;;;;;;;;;;;;;;;5.73;73.80;98923.85;1650048;85;20487;-86
2021/10/11 00:54:07;;;;;;;;;;;;;;;5.70;73.81;98926.59;1687102;83;24674;-83
2021/10/11 00:56:34;;;;;;;;;;;;;;;5.66;73.79;98923.30;1623425;87;22026;-82
2021/10/11 00:59:00;;;;;;;;;;;;;;;5.60;73.80;98922.70;1660985;85;26233;-86
2021/10/11 01:01:26;;;;;;;;;;;;;;;5.58;73.78;98920.61;1653497;85;24531;-83
2021/10/11 01:03:52;;;;;;;;;;;;;;;5.56;73.78;98915.51;1632611;87;20322;-82
2021/10/11 01:06:19;;;;;;;;;;;;;;;5.59;73.80;98915.81;1634688;87;24743;-82
2021/10/11 01:08:46;;;;;;;;;;;;;;;5.59;73.81;98909.32;1630416;87;22045;-82
2021/10/11 01:11:12;;;;;;;;;;;;;;;5.56;73.81;98909.47;1650636;86;26048;-83
2021/10/11 01:13:38;;;;;;;;;;;;;;;5.54;73.83;98907.38;1650026;85;25292;-83
2021/10/11 01:16:04;;;;;;;;;;;;;;;5.50;73.86;98912.31;1652446;85;20323;-86
2021/10/11 01:18:31;;;;;;;;;;;;;;;5.47;73.88;98905.03;1624427;87;24855;-83
2021/10/11 01:21:01;;;;;;;;;;;;;;;5.48;73.89;98913.67;1646979;86;22082;-86
2021/10/11 01:23:26;;;;;;;;;;;;;;;5.50;73.90;98909.72;1647571;84;26540;-87
2021/10/11 01:25:52;;;;;;;;;;;;;;;5.46;73.94;98897.30;1660954;85;24472;-83
2021/10/11 01:28:19;;;;;;;;;;;;;;;5.44;73.97;98903.03;1654731;85;20508;-82
2021/10/11 01:30:45;;;;;;;;;;;;;;;5.42;74.00;98899.19;1647868;86;24933;-83
2021/10/11 01:33:17;;;;;;;;;;;;;;;5.42;74.02;98896.59;1644488;86;22109;-83
2021/10/11 01:35:43;;;;;;;;;;;;;;;5.40;74.04;98896.29;1652256;85;26236;-85
2021/10/11 01:38:11;;;;;;;;;;;;;;;5.44;74.08;98897.39;1689873;83;20170;-83
2021/10/11 01:40:39;;;;;;;;;;;;;;;5.46;74.12;98893.41;1653584;85;20298;-86
2021/10/11 01:43:08;;;;;;;;;;;;;;;5.41;74.13;98892.31;1659182;85;24863;-86
2021/10/11 01:45:35;;;;;;;;;;;;;;;5.33;74.13;98890.50;1659887;85;22104;-83
2021/10/11 01:48:02;;;;;;;;;;;;;;;5.24;74.13;98885.67;1646076;85;26060;-84
2021/10/11 01:50:32;;;;;;;;;;;;;;;5.19;74.13;98889.36;1624069;87;24510;-84
2021/10/11 01:52:58;;;;;;;;;;;;;;;5.17;74.15;98882.11;1656791;85;20209;-84
2021/10/11 01:55:24;;;;;;;;;;;;;;;5.15;74.16;98876.12;1659086;85;24907;-86
2021/10/11 01:57:50;;;;;;;;;;;;;;;5.12;74.17;98866.74;1649535;85;22028;-83
2021/10/11 02:00:16;;;;;;;;;;;;;;;5.12;74.23;98863.30;1629033;87;26052;-86
2021/10/11 02:02:42;;;;;;;;;;;;;;;5.13;74.26;98858.02;1651028;86;24405;-86
2021/10/11 02:05:09;;;;;;;;;;;;;;;5.11;74.30;98858.56;1647820;85;20249;-87
2021/10/11 02:07:35;;;;;;;;;;;;;;;5.12;74.35;98852.47;1655832;85;24698;-87
2021/10/11 02:10:05;;;;;;;;;;;;;;;5.13;74.37;98854.62;1634423;87;22853;-83
2021/10/11 02:12:31;;;;;;;;;;;;;;;5.08;74.40;98853.48;1629957;85;26226;-82
2021/10/11 02:14:57;;;;;;;;;;;;;;;5.03;74.40;98850.23;1632161;87;24380;-82
2021/10/11 02:17:27;;;;;;;;;;;;;;;4.98;74.43;98856.06;1652997;86;20220;-85
2021/10/11 02:19:53;;;;;;;;;;;;;;;4.93;74.44;98845.03;1657814;85;24847;-85
2021/10/11 02:22:20;;;;;;;;;;;;;;;4.94;74.45;98842.84;1648952;86;21401;-87
2021/10/11 02:24:46;;;;;;;;;;;;;;;4.90;74.45;98845.17;1654330;85;26146;-83
2021/10/11 02:27:12;;;;;;;;;;;;;;;4.84;74.47;98841.53;1653511;86;24497;-87
2021/10/11 02:29:38;;;;;;;;;;;;;;;4.74;74.49;98839.77;1656605;86;20252;-86
2021/10/11 02:32:04;;;;;;;;;;;;;;;4.64;74.47;98839.70;1650418;86;24777;-87
2021/10/11 02:34:30;;;;;;;;;;;;;;;4.55;74.48;98842.67;1650371;86;21984;-84
2021/10/11 02:36:56;;;;;;;;;;;;;;;4.50;74.48;98853.67;1678249;84;26077;-86
2021/10/11 02:39:23;;;;;;;;;;;;;;;4.44;74.48;98849.56;1651785;86;24460;-87
2021/10/11 02:41:49;;;;;;;;;;;;;;;4.45;74.52;98843.48;1652671;85;20600;-87
2021/10/11 02:44:15;;;;;;;;;;;;;;;4.52;74.59;98840.21;1652852;85;25022;-87
2021/10/11 02:46:41;;;;;;;;;;;;;;;4.54;74.66;98835.80;1653786;85;21956;-87
2021/10/11 02:49:07;;;;;;;;;;;;;;;4.54;74.72;98843.13;1648776;85;25997;-86
2021/10/11 02:51:33;;;;;;;;;;;;;;;4.54;74.77;98842.27;1655005;85;24557;-83
2021/10/11 02:54:01;;;;;;;;;;;;;;;4.57;74.86;98836.54;1656027;85;20506;-83
2021/10/11 02:56:27;;;;;;;;;;;;;;;4.61;74.95;98831.62;1649433;85;24423;-83
2021/10/11 02:58:53;;;;;;;;;;;;;;;4.64;75.02;98836.66;1654252;85;22014;-82
2021/10/11 03:01:19;;;;;;;;;;;;;;;4.59;75.08;98836.45;1648889;85;25962;-81
2021/10/11 03:03:45;;;;;;;;;;;;;;;4.51;75.11;98832.89;1647546;85;24588;-81
2021/10/11 03:06:12;;;;;;;;;;;;;;;4.48;75.17;98838.17;1656292;85;20213;-83
2021/10/11 03:08:38;;;;;;;;;;;;;;;4.45;75.22;98840.89;1653801;86;24786;-86
2021/10/11 03:11:05;;;;;;;;;;;;;;;4.45;75.28;98842.64;1654886;86;22638;-83
2021/10/11 03:13:31;;;;;;;;;;;;;;;4.43;75.33;98831.03;1649055;85;26043;-83
2021/10/11 03:15:57;;;;;;;;;;;;;;;4.45;75.39;98828.39;1647790;85;24419;-84
2021/10/11 03:18:23;;;;;;;;;;;;;;;4.47;75.45;98827.41;1653754;85;20280;-82
2021/10/11 03:20:50;;;;;;;;;;;;;;;4.46;75.51;98833.52;1654800;85;24741;-86
2021/10/11 03:23:17;;;;;;;;;;;;;;;4.42;75.54;98833.22;1650230;86;22834;-86
2021/10/11 03:25:43;;;;;;;;;;;;;;;4.38;75.58;98826.48;1650587;86;25997;-87
2021/10/11 03:28:09;;;;;;;;;;;;;;;4.39;75.62;98820.84;1655280;85;24497;-83
2021/10/11 03:30:40;;;;;;;;;;;;;;;4.40;75.67;98819.95;1651755;86;20216;-83
2021/10/11 03:33:03;;;;;;;;;;;;;;;4.38;75.72;98823.89;1653862;85;25435;-82
2021/10/11 03:35:29;;;;;;;;;;;;;;;4.35;75.76;98817.99;1646986;85;21970;-86
2021/10/11 03:37:56;;;;;;;;;;;;;;;4.35;75.79;98819.29;1650416;85;26044;-87
2021/10/11 03:40:24;;;;;;;;;;;;;;;4.37;75.82;98821.34;1651907;86;24441;-87
2021/10/11 03:42:50;;;;;;;;;;;;;;;4.36;75.86;98817.94;1650298;84;20237;-86
2021/10/11 03:45:19;;;;;;;;;;;;;;;4.30;75.89;98816.03;1648704;85;24760;-86
2021/10/11 03:47:45;;;;;;;;;;;;;;;4.27;75.92;98816.98;1650119;86;22085;-83
2021/10/11 03:50:11;;;;;;;;;;;;;;;4.25;75.96;98816.66;1655979;85;26020;-87
2021/10/11 03:52:45;;;;;;;;;;;;;;;4.21;75.99;98814.63;1651027;86;20268;-87
2021/10/11 03:55:11;;;;;;;;;;;;;;;4.17;76.00;98811.77;1651557;85;20200;-83
2021/10/11 03:57:37;;;;;;;;;;;;;;;4.11;76.05;98814.58;1649908;85;24805;-83
2021/10/11 04:00:04;;;;;;;;;;;;;;;4.05;76.07;98807.89;1650203;85;22842;-84
2021/10/11 04:02:30;;;;;;;;;;;;;;;3.99;76.10;98805.52;1648604;85;25989;-83
2021/10/11 04:04:56;;;;;;;;;;;;;;;3.97;76.15;98807.80;1654125;85;20274;-87
2021/10/11 04:07:22;;;;;;;;;;;;;;;3.84;76.17;98793.60;1629076;86;20508;-86
2021/10/11 04:09:55;;;;;;;;;;;;;;;3.93;76.24;98801.86;1650228;85;24723;-86
2021/10/11 04:12:19;;;;;;;;;;;;;;;3.95;76.29;98799.23;1649557;84;22078;-82
2021/10/11 04:14:45;;;;;;;;;;;;;;;3.97;76.35;98799.58;1650703;85;26439;-87
2021/10/11 04:17:11;;;;;;;;;;;;;;;3.99;76.39;98796.46;1657055;85;24511;-85
2021/10/11 04:19:37;;;;;;;;;;;;;;;3.99;76.45;98800.34;1649599;85;20248;-84
2021/10/11 04:22:03;;;;;;;;;;;;;;;3.98;76.49;98802.53;1659286;85;24955;-82
2021/10/11 04:24:32;;;;;;;;;;;;;;;3.94;76.53;98797.53;1651804;85;22133;-87
2021/10/11 04:26:59;;;;;;;;;;;;;;;3.91;76.56;98795.92;1658521;85;26007;-87
2021/10/11 04:29:29;;;;;;;;;;;;;;;3.91;76.60;98789.89;1663561;85;24432;-82
2021/10/11 04:31:52;;;;;;;;;;;;;;;3.94;76.65;98783.30;1663366;84;20237;-85
2021/10/11 04:34:18;;;;;;;;;;;;;;;3.99;76.69;98783.52;1658643;85;24726;-82
2021/10/11 04:36:44;;;;;;;;;;;;;;;4.03;76.74;98788.14;1658630;85;22165;-83
2021/10/11 04:39:10;;;;;;;;;;;;;;;3.98;76.78;98785.70;1676527;84;25983;-84
2021/10/11 04:41:36;;;;;;;;;;;;;;;3.96;76.82;98790.56;1650659;85;24501;-84
2021/10/11 04:44:03;;;;;;;;;;;;;;;3.94;76.83;98785.44;1622590;85;20327;-83
2021/10/11 04:46:29;;;;;;;;;;;;;;;3.94;76.86;98785.88;1621306;86;24774;-82
2021/10/11 04:48:55;;;;;;;;;;;;;;;3.94;76.88;98784.14;1610016;87;22026;-83
2021/10/11 04:51:21;;;;;;;;;;;;;;;3.94;76.91;98785.88;1598849;87;26025;-84
2021/10/11 04:53:50;;;;;;;;;;;;;;;3.91;76.93;98785.56;1626617;86;24612;-87
2021/10/11 04:56:16;;;;;;;;;;;;;;;3.95;76.96;98785.84;1625012;86;20311;-87
2021/10/11 04:58:42;;;;;;;;;;;;;;;4.00;77.00;98788.25;1630464;86;24800;-87
2021/10/11 05:01:08;;;;;;;;;;;;;;;4.04;77.04;98783.34;1632885;86;22085;-84
2021/10/11 05:03:35;;;;;;;;;;;;;;;4.07;77.06;98781.49;1631847;86;26715;-83
2021/10/11 05:06:01;;;;;;;;;;;;;;;4.07;77.11;98776.77;1622534;86;25227;-82
2021/10/11 05:08:27;;;;;;;;;;;;;;;4.09;77.12;98778.38;1624845;86;20354;-83
2021/10/11 05:10:53;;;;;;;;;;;;;;;4.14;77.15;98788.59;1621286;87;24794;-81
2021/10/11 05:13:19;;;;;;;;;;;;;;;4.15;77.21;98790.25;1615797;87;22781;-81
2021/10/11 05:15:47;;;;;;;;;;;;;;;4.15;77.24;98783.32;1645361;85;26227;-84
2021/10/11 05:18:13;;;;;;;;;;;;;;;4.18;77.26;98783.22;1595985;87;24507;-85
2021/10/11 05:20:46;;;;;;;;;;;;;;;4.17;77.31;98782.83;1599010;87;20257;-87
2021/10/11 05:23:07;;;;;;;;;;;;;;;4.16;77.33;98783.72;1634514;86;24839;-84
2021/10/11 05:25:34;;;;;;;;;;;;;;;4.20;77.36;98777.51;1620655;87;22236;-82
2021/10/11 05:28:00;;;;;;;;;;;;;;;4.20;77.38;98772.78;1627994;86;25981;-82
2021/10/11 05:30:26;;;;;;;;;;;;;;;4.19;77.41;98780.19;1627871;86;24405;-87
2021/10/11 05:32:52;;;;;;;;;;;;;;;4.19;77.44;98777.59;1626450;87;20290;-87
2021/10/11 05:35:19;;;;;;;;;;;;;;;4.19;77.46;98786.21;1627950;85;24757;-87
2021/10/11 05:37:45;;;;;;;;;;;;;;;4.23;77.48;98775.72;1628334;86;21975;-87
2021/10/11 05:40:11;;;;;;;;;;;;;;;4.27;77.52;98778.12;1619947;87;26058;-87
2021/10/11 05:42:37;;;;;;;;;;;;;;;4.28;77.56;98778.52;1619164;86;24490;-87
2021/10/11 05:45:03;;;;;;;;;;;;;;;4.26;77.57;98775.58;1587226;89;20222;-87
2021/10/11 05:47:29;;;;;;;;;;;;;;;4.25;77.60;98781.70;1585694;89;24847;-87
2021/10/11 05:49:55;;;;;;;;;;;;;;;4.23;77.63;98769.24;1582992;89;22042;-86
2021/10/11 05:52:22;;;;;;;;;;;;;;;4.24;77.65;98774.37;1599314;88;26072;-86
2021/10/11 05:54:48;;;;;;;;;;;;;;;4.28;77.70;98773.34;1618632;87;24511;-83
2021/10/11 05:57:14;;;;;;;;;;;;;;;4.28;77.74;98777.67;1622511;87;20225;-84
2021/10/11 05:59:41;;;;;;;;;;;;;;;4.25;77.75;98777.36;1622551;86;24807;-83
2021/10/11 06:02:07;;;;;;;;;;;;;;;4.28;77.80;98782.86;1615345;87;22103;-83
2021/10/11 06:04:33;;;;;;;;;;;;;;;4.37;77.85;98792.84;1621050;87;26068;-84
2021/10/11 06:07:03;;;;;;;;;;;;;;;4.47;77.88;98793.72;1628152;87;24417;-84
2021/10/11 06:09:29;;;;;;;;;;;;;;;4.55;77.94;98789.09;1618253;87;20215;-87
2021/10/11 06:11:55;;;;;;;;;;;;;;;4.61;77.99;98790.59;1592646;88;24667;-87
2021/10/11 06:14:21;;;;;;;;;;;;;;;4.64;78.03;98786.12;1585139;89;22524;-87
2021/10/11 06:16:47;;;;;;;;;;;;;;;4.72;78.07;98784.98;1600741;88;26165;-87
2021/10/11 06:19:14;;;;;;;;;;;;;;;4.76;78.10;98787.83;1598329;88;24479;-82
2021/10/11 06:21:41;;;;;;;;;;;;;;;4.74;78.14;98790.50;1628973;87;20212;-87
2021/10/11 06:24:09;;;;;;;;;;;;;;;4.67;78.12;98787.77;1627496;87;24749;-87
2021/10/11 06:26:34;;;;;;;;;;;;;;;4.61;78.14;98786.70;1623858;86;22041;-83
2021/10/11 06:29:00;;;;;;;;;;;;;;;4.64;78.14;98791.75;1627609;86;21165;-85
2021/10/11 06:31:28;;;;;;;;;;;;;;;4.73;78.19;98790.11;1594923;88;24507;-83
2021/10/11 06:33:54;;;;;;;;;;;;;;;4.86;78.25;98792.57;1604954;88;20389;-83
2021/10/11 06:36:20;;;;;;;;;;;;;;;5.05;78.33;98788.77;1601194;88;25365;-83
2021/10/11 06:38:47;;;;;;;;;;;;;;;5.22;78.40;98786.32;1595706;88;21930;-84
2021/10/11 06:41:13;;;;;;;;;;;;;;;5.32;78.44;98778.52;1600418;88;26155;-83
2021/10/11 06:43:39;;;;;;;;;;;;;;;5.47;78.47;98775.70;1607159;85;25142;-88
2021/10/11 06:46:05;;;;;;;;;;;;;;;5.57;78.50;98771.79;1622124;87;20219;-84
2021/10/11 06:48:31;;;;;;;;;;;;;;;5.65;78.51;98772.77;1588133;89;25352;-86
2021/10/11 06:51:00;;;;;;;;;;;;;;;5.72;78.53;98769.83;1597925;89;22624;-82
2021/10/11 06:53:26;;;;;;;;;;;;;;;5.82;78.54;98772.40;1601817;88;21077;-87
2021/10/11 06:55:52;;;;;;;;;;;;;;;5.87;78.56;98765.73;1610722;88;24513;-83
2021/10/11 06:58:18;;;;;;;;;;;;;;;5.95;78.61;98767.95;1621168;87;20776;-85
2021/10/11 07:00:44;;;;;;;;;;;;;;;6.08;78.65;98770.39;1583250;88;24843;-86
2021/10/11 07:03:10;;;;;;;;;;;;;;;6.10;78.67;98761.63;1590070;89;23045;-87
2021/10/11 07:05:36;;;;;;;;;;;;;;;6.15;78.68;98760.10;1600487;88;26115;-86
2021/10/11 07:08:09;;;;;;;;;;;;;;;6.20;78.71;98753.78;1621729;87;24497;-84
2021/10/11 07:10:30;;;;;;;;;;;;;;;6.31;78.74;98759.77;1584961;88;20255;-84
2021/10/11 07:13:01;;;;;;;;;;;;;;;6.43;78.74;98758.34;1590551;89;24760;-87
2021/10/11 07:15:29;;;;;;;;;;;;;;;6.51;78.79;98758.80;1590136;87;22641;-86
2021/10/11 07:17:55;;;;;;;;;;;;;;;6.57;78.80;98767.16;1589840;87;26901;-83
2021/10/11 07:20:21;;;;;;;;;;;;;;;6.73;78.83;98773.30;1589690;87;24457;-83
2021/10/11 07:22:47;;;;;;;;;;;;;;;6.87;78.85;98774.39;1579059;90;20252;-83
2021/10/11 07:25:14;;;;;;;;;;;;;;;6.94;78.87;98770.08;1597676;88;24810;-83
2021/10/11 07:27:40;;;;;;;;;;;;;;;7.03;78.88;98770.95;1558040;90;22082;-83
2021/10/11 07:30:06;;;;;;;;;;;;;;;7.10;78.90;98768.40;1560024;90;26191;-86
2021/10/11 07:32:33;;;;;;;;;;;;;;;7.22;78.93;98762.19;1611533;87;24497;-86
2021/10/11 07:34:59;;;;;;;;;;;;;;;7.30;78.93;98765.26;1611933;87;20246;-86
2021/10/11 07:37:25;;;;;;;;;;;;;;;7.39;78.92;98761.72;1624629;87;24918;-87
2021/10/11 07:39:52;;;;;;;;;;;;;;;7.48;78.93;98764.28;1582627;88;22017;-87
2021/10/11 07:42:18;;;;;;;;;;;;;;;7.56;78.91;98758.23;1588827;88;26092;-86
2021/10/11 07:44:50;;;;;;;;;;;;;;;7.62;78.90;98766.19;1638812;85;20244;-87
2021/10/11 07:47:16;;;;;;;;;;;;;;;7.70;78.87;98765.30;1650212;85;20208;-81
2021/10/11 07:49:42;;;;;;;;;;;;;;;7.78;78.86;98767.91;1650093;85;24850;-90
2021/10/11 07:52:08;;;;;;;;;;;;;;;7.84;78.82;98770.19;1644931;85;21971;-86
2021/10/11 07:54:34;;;;;;;;;;;;;;;7.93;78.81;98767.53;1646097;85;25940;-86
2021/10/11 07:57:02;;;;;;;;;;;;;;;8.05;78.76;98768.64;1620396;85;38889;-83
2021/10/11 07:59:29;;;;;;;;;;;;;;;8.15;78.73;98765.91;1645433;85;20489;-82
2021/10/11 08:01:56;;;;;;;;;;;;;;;8.17;78.69;98762.30;1648272;85;24836;-87
2021/10/11 08:04:22;;;;;;;;;;;;;;;8.16;78.59;98761.92;1646868;85;22054;-86
2021/10/11 08:06:49;;;;;;;;;;;;;;;8.12;78.53;98749.98;1647004;85;26048;-82
2021/10/11 08:09:15;;;;;;;;;;;;;;;8.16;78.45;98741.06;1607510;87;24445;-82
2021/10/11 08:11:43;;;;;;;;;;;;;;;8.26;78.40;98747.91;1580733;88;20229;-82
2021/10/11 08:14:09;;;;;;;;;;;;;;;8.25;78.33;98739.70;1585374;87;25392;-86
2021/10/11 08:16:38;;;;;;;;;;;;;;;8.38;78.27;98735.53;1584387;88;21865;-86
2021/10/11 08:19:04;;;;;;;;;;;;;;;8.50;78.25;98741.38;1587815;89;26085;-82
2021/10/11 08:21:30;;;;;;;;;;;;;;;8.65;78.19;98735.27;1605221;87;24589;-86
2021/10/11 08:23:57;;;;;;;;;;;;;;;8.70;78.13;98733.70;1604555;87;20393;-86
2021/10/11 08:26:23;;;;;;;;;;;;;;;8.76;78.08;98732.05;1605093;87;25030;-83
2021/10/11 08:28:50;;;;;;;;;;;;;;;8.80;78.03;98726.56;1605317;87;20267;-82
2021/10/11 08:31:18;;;;;;;;;;;;;;;8.89;77.94;98738.71;1606218;87;26223;-86
2021/10/11 08:33:43;;;;;;;;;;;;;;;8.88;77.88;98720.91;1601710;88;24566;-86
2021/10/11 08:36:14;;;;;;;;;;;;;;;9.07;77.84;98731.09;1603682;88;20341;-82
2021/10/11 08:38:41;;;;;;;;;;;;;;;9.13;77.73;98730.73;1606887;87;24817;-84
2021/10/11 08:41:08;;;;;;;;;;;;;;;9.09;77.59;98734.46;1594860;89;21948;-86
2021/10/11 08:43:36;;;;;;;;;;;;;;;9.17;77.47;98734.83;1601707;87;26900;-83
2021/10/11 08:46:03;;;;;;;;;;;;;;;9.28;77.38;98730.27;1596767;88;24581;-83
2021/10/11 08:48:31;;;;;;;;;;;;;;;9.33;77.26;98729.06;1583980;88;20437;-83
2021/10/11 08:50:57;;;;;;;;;;;;;;;9.30;77.14;98726.66;1579763;89;25576;-83
2021/10/11 08:53:23;;;;;;;;;;;;;;;9.40;77.05;98725.63;1613912;88;20255;-86
2021/10/11 08:55:49;;;;;;;;;;;;;;;9.48;76.92;98729.47;1611702;88;21061;-86
2021/10/11 08:58:15;;;;;;;;;;;;;;;9.60;76.85;98723.97;1612843;88;24551;-86
2021/10/11 09:00:41;;;;;;;;;;;;;;;9.71;76.76;98724.62;1606883;88;20273;-87
2021/10/11 09:03:09;;;;;;;;;;;;;;;9.83;76.67;98716.83;1614209;88;24912;-83
2021/10/11 09:05:36;;;;;;;;;;;;;;;10.02;76.62;98721.30;1611770;88;22126;-86
2021/10/11 09:08:07;;;;;;;;;;;;;;;10.15;76.54;98723.95;1615058;88;26779;-87
2021/10/11 09:10:38;;;;;;;;;;;;;;;10.24;76.42;98717.36;1604914;88;24612;-87
2021/10/11 09:13:11;;;;;;;;;;;;;;;10.29;76.26;98716.12;1605067;86;20203;-87
2021/10/11 09:15:38;;;;;;;;;;;;;;;10.36;76.11;98719.19;1598810;88;24750;-87
2021/10/11 09:18:06;;;;;;;;;;;;;;;10.45;75.94;98718.13;1597992;87;23037;-86
2021/10/11 09:20:36;;;;;;;;;;;;;;;10.54;75.77;98722.38;1600582;87;26841;-86
2021/10/11 09:23:01;;;;;;;;;;;;;;;10.53;75.55;98724.14;1599741;88;24465;-87
2021/10/11 09:25:37;;;;;;;;;;;;;;;10.58;75.34;98717.33;1599749;87;20600;-87
2021/10/11 09:28:04;;;;;;;;;;;;;;;10.62;75.12;98715.72;1599546;88;24738;-87
2021/10/11 09:30:37;;;;;;;;;;;;;;;10.64;74.87;98712.51;1599290;88;21986;-87
2021/10/11 09:33:11;;;;;;;;;;;;;;;10.60;74.61;98714.13;1599172;88;26085;-87
2021/10/11 09:35:37;;;;;;;;;;;;;;;10.61;74.38;98707.95;1579096;89;24656;-82
2021/10/11 09:38:06;;;;;;;;;;;;;;;10.62;74.14;98704.41;1599017;88;20283;-86
2021/10/11 09:40:40;;;;;;;;;;;;;;;10.59;73.92;98704.59;1601240;87;24916;-86
2021/10/11 09:43:13;;;;;;;;;;;;;;;10.64;73.72;98705.97;1599656;88;22060;-86
2021/10/11 09:45:45;;;;;;;;;;;;;;;10.62;73.52;98705.72;1626952;86;25435;-82
2021/10/11 09:48:14;;;;;;;;;;;;;;;10.59;73.28;98708.52;1625448;86;24539;-82
2021/10/11 09:50:43;;;;;;;;;;;;;;;10.56;73.07;98703.49;1627186;86;20355;-83
2021/10/11 09:53:10;;;;;;;;;;;;;;;10.53;72.90;98698.47;1627199;86;24933;-86
2021/10/11 09:55:44;;;;;;;;;;;;;;;10.55;72.76;98697.89;1626830;86;22110;-86
2021/10/11 09:58:11;;;;;;;;;;;;;;;10.63;72.63;98696.46;1624930;86;26052;-83
2021/10/11 10:00:37;;;;;;;;;;;;;;;10.68;72.49;98690.45;1626161;86;24532;-83
2021/10/11 10:03:03;;;;;;;;;;;;;;;10.71;72.39;98686.31;1627440;86;20543;-83
2021/10/11 10:05:34;;;;;;;;;;;;;;;10.73;72.27;98682.29;1631570;86;20283;-83
2021/10/11 10:08:09;;;;;;;;;;;;;;;10.72;72.19;98681.91;1625979;86;21770;-87
2021/10/11 10:10:37;;;;;;;;;;;;;;;10.73;72.08;98679.67;1626250;86;26769;-87
2021/10/11 10:13:05;;;;;;;;;;;;;;;10.75;71.95;98676.46;1625065;86;24437;-86
2021/10/11 10:15:32;;;;;;;;;;;;;;;10.65;71.80;98670.16;1624269;86;20272;-83
2021/10/11 10:18:03;;;;;;;;;;;;;;;10.58;71.62;98667.14;1624568;86;25735;-83
2021/10/11 10:20:34;;;;;;;;;;;;;;;10.56;71.48;98657.23;1623499;86;22707;-83
2021/10/11 10:23:01;;;;;;;;;;;;;;;10.56;71.39;98661.16;1639405;85;25504;-83
2021/10/11 10:25:27;;;;;;;;;;;;;;;10.66;71.36;98653.06;1642401;85;24392;-83
2021/10/11 10:28:01;;;;;;;;;;;;;;;10.69;71.25;98653.34;1639633;86;20263;-86
2021/10/11 10:30:27;;;;;;;;;;;;;;;10.70;71.07;98651.91;1639526;86;24738;-87
2021/10/11 10:32:54;;;;;;;;;;;;;;;10.77;70.90;98645.33;1640409;86;21932;-83
2021/10/11 10:35:21;;;;;;;;;;;;;;;10.88;70.72;98642.83;1640859;86;25988;-82
2021/10/11 10:37:47;;;;;;;;;;;;;;;10.93;70.51;98640.36;1639694;86;24399;-87
2021/10/11 10:40:14;;;;;;;;;;;;;;;10.96;70.32;98647.55;1639544;86;20259;-87
2021/10/11 10:42:40;;;;;;;;;;;;;;;11.02;70.08;98636.63;1639937;86;25534;-87
2021/10/11 10:45:17;;;;;;;;;;;;;;;10.99;69.75;98633.40;1639232;84;22022;-82
2021/10/11 10:47:43;;;;;;;;;;;;;;;10.95;69.45;98630.16;1641091;85;26147;-83
2021/10/11 10:50:23;;;;;;;;;;;;;;;11.08;69.20;98628.83;1638810;85;24557;-85
2021/10/11 10:52:59;;;;;;;;;;;;;;;11.16;69.02;98626.06;1639092;85;20653;-83
2021/10/11 10:55:26;;;;;;;;;;;;;;;11.26;68.85;98618.40;1637526;85;24816;-83
2021/10/11 10:58:02;;;;;;;;;;;;;;;11.38;68.70;98620.64;1639203;85;22151;-85
2021/10/11 11:00:28;;;;;;;;;;;;;;;11.48;68.60;98619.89;1637260;85;26236;-87
2021/10/11 11:02:54;;;;;;;;;;;;;;;11.59;68.43;98615.19;1638537;85;24493;-86
2021/10/11 11:05:25;;;;;;;;;;;;;;;11.66;68.26;98614.66;1640638;85;20189;-82
2021/10/11 11:07:53;;;;;;;;;;;;;;;11.62;68.04;98609.72;1637432;85;24830;-84
2021/10/11 11:10:21;;;;;;;;;;;;;;;11.61;67.81;98609.38;1640989;85;22213;-86
2021/10/11 11:13:04;;;;;;;;;;;;;;;11.65;67.60;98605.11;1637847;85;25994;-89
2021/10/11 11:15:32;;;;;;;;;;;;;;;11.74;67.46;98603.17;1638031;85;24417;-84
2021/10/11 11:18:01;;;;;;;;;;;;;;;11.86;67.29;98600.14;1637909;85;20223;-83
2021/10/11 11:20:28;;;;;;;;;;;;;;;11.91;67.08;98605.88;1638534;85;24986;-89
2021/10/11 11:22:56;;;;;;;;;;;;;;;11.94;66.83;98607.47;1637421;85;22874;-88
2021/10/11 11:25:30;;;;;;;;;;;;;;;11.99;66.64;98600.94;1639975;85;26687;-89
2021/10/11 11:27:57;;;;;;;;;;;;;;;12.06;66.39;98592.12;1632487;86;24523;-89
2021/10/11 11:30:38;;;;;;;;;;;;;;;12.15;66.16;98598.02;1616500;87;20483;-89
2021/10/11 11:33:06;;;;;;;;;;;;;;;12.25;66.02;98596.86;1637013;85;24790;-84
2021/10/11 11:35:37;;;;;;;;;;;;;;;12.30;65.81;98599.51;1635757;85;21941;-89
2021/10/11 11:38:04;;;;;;;;;;;;;;;12.32;65.59;98594.16;1636259;85;26016;-86
2021/10/11 11:40:35;;;;;;;;;;;;;;;12.33;65.36;98594.02;1631263;86;24511;-86
2021/10/11 11:43:03;;;;;;;;;;;;;;;12.40;65.20;98590.47;1615645;87;20200;-86
2021/10/11 11:45:48;;;;;;;;;;;;;;;12.41;64.99;98589.05;1591235;86;24711;-86
2021/10/11 11:48:18;;;;;;;;;;;;;;;12.39;64.77;98579.60;1576899;89;21988;-84
2021/10/11 11:50:46;;;;;;;;;;;;;;;12.50;64.60;98577.01;1573593;89;25373;-88
2021/10/11 11:53:14;;;;;;;;;;;;;;;12.48;64.44;98578.94;1569964;89;24483;-86
2021/10/11 11:55:40;;;;;;;;;;;;;;;12.49;64.24;98576.67;1571499;89;20506;-88
2021/10/11 11:58:13;;;;;;;;;;;;;;;12.56;64.13;98566.05;1578039;89;24771;-84
2021/10/11 12:00:43;;;;;;;;;;;;;;;12.64;64.04;98572.88;1582572;89;22166;-87
2021/10/11 12:03:12;;;;;;;;;;;;;;;12.72;64.00;98565.24;1575963;89;26064;-86
2021/10/11 12:05:39;;;;;;;;;;;;;;;12.80;63.88;98566.81;1575422;89;24499;-90
2021/10/11 12:08:06;;;;;;;;;;;;;;;12.78;63.68;98570.03;1572789;89;20360;-87
2021/10/11 12:10:34;;;;;;;;;;;;;;;12.80;63.56;98564.66;1573570;89;24889;-87
2021/10/11 12:13:05;;;;;;;;;;;;;;;12.88;63.48;98568.84;1577671;89;22896;-87
2021/10/11 12:15:32;;;;;;;;;;;;;;;12.93;63.39;98567.53;1575775;89;26092;-85
2021/10/11 12:18:03;;;;;;;;;;;;;;;12.96;63.25;98561.22;1583317;89;24545;-84
2021/10/11 12:20:39;;;;;;;;;;;;;;;13.02;63.13;98566.47;1608471;87;20335;-84
2021/10/11 12:23:05;;;;;;;;;;;;;;;13.00;62.88;98560.86;1609502;87;24827;-88
2021/10/11 12:25:34;;;;;;;;;;;;;;;13.02;62.65;98566.47;1610157;87;22042;-88
2021/10/11 12:28:16;;;;;;;;;;;;;;;13.06;62.45;98560.02;1602866;88;26324;-86
2021/10/11 12:30:47;;;;;;;;;;;;;;;13.08;62.24;98563.38;1583459;88;25212;-84
2021/10/11 12:33:16;;;;;;;;;;;;;;;13.11;62.03;98560.49;1614364;87;20229;-88
2021/10/11 12:35:43;;;;;;;;;;;;;;;13.09;61.80;98551.41;1602758;88;25410;-88
2021/10/11 12:38:13;;;;;;;;;;;;;;;13.12;61.55;98554.32;1604608;88;22118;-88
2021/10/11 12:40:42;;;;;;;;;;;;;;;13.13;61.29;98549.42;1608636;88;26715;-88
2021/10/11 12:43:20;;;;;;;;;;;;;;;13.14;61.04;98545.85;1630383;86;24564;-84
2021/10/11 12:45:47;;;;;;;;;;;;;;;13.14;60.82;98549.80;1633522;85;20352;-87
2021/10/11 12:48:13;;;;;;;;;;;;;;;13.14;60.61;98541.44;1651024;85;24856;-86
2021/10/11 12:50:41;;;;;;;;;;;;;;;13.17;60.47;98537.23;1654681;85;22018;-87
2021/10/11 12:53:08;;;;;;;;;;;;;;;13.24;60.38;98536.28;1627892;85;25943;-88